Terminal Aerodrome Forecast
Issued by NWS

Home | Current Version | Previous Version | Text Only | Print | Product List | Glossary On
Versions: 1 2 3 4 5 6 7 8 9 10 11 12 13 14 15 16 17 18 19 20 21 22
253
FTUS43 KEAX 210520
TAFSTJ
TAF
KSTJ 210520Z 2106/2206 VRB04KT 1/2SM FG BKN008
     FM211500 22006KT 3/4SM BR BKN002
     FM211700 21008KT 2SM BR SCT015
     FM211800 21008KT P6SM BKN060=

USA.gov is the U.S. government's official web portal to all federal, state and local government web resources and services.